sensor_id;sensor_type;location;lat;lon;timestamp;pressure;altitude;pressure_sealevel;temperature;humidity
64362;BME280;50685;53.346;-6.296;2023-02-14T02:53:06;102394.38;;;7.52;78.59
64362;BME280;50685;53.346;-6.296;2023-02-14T10:19:56;102301.13;;;13.77;73.30
64362;BME280;50685;53.346;-6.296;2023-02-14T10:22:26;102291.28;;;13.98;71.79
64362;BME280;50685;53.346;-6.296;2023-02-14T10:25:02;102287.72;;;13.96;70.93
64362;BME280;50685;53.346;-6.296;2023-02-14T10:27:36;102289.50;;;13.97;71.24
64362;BME280;50685;53.346;-6.296;2023-02-14T11:03:55;102300.97;;;14.33;68.92
64362;BME280;50685;53.346;-6.296;2023-02-14T11:06:31;102289.28;;;14.65;68.35
64362;BME280;50685;53.346;-6.296;2023-02-14T11:09:00;102292.72;;;14.83;67.75
64362;BME280;50685;53.346;-6.296;2023-02-14T11:13:53;102289.13;;;14.87;67.37
64362;BME280;50685;53.346;-6.296;2023-02-14T11:16:37;102285.63;;;14.80;66.54
64362;BME280;50685;53.346;-6.296;2023-02-14T11:21:39;102291.94;;;14.60;66.98
64362;BME280;50685;53.346;-6.296;2023-02-14T11:24:15;102295.53;;;14.50;67.16
64362;BME280;50685;53.346;-6.296;2023-02-14T11:26:43;102286.69;;;14.39;67.86
64362;BME280;50685;53.346;-6.296;2023-02-14T11:29:10;102295.63;;;14.35;67.83
64362;BME280;50685;53.346;-6.296;2023-02-14T11:31:43;102296.50;;;14.35;68.05
64362;BME280;50685;53.346;-6.296;2023-02-14T11:34:23;102300.06;;;14.28;68.24
64362;BME280;50685;53.346;-6.296;2023-02-14T11:36:49;102307.22;;;14.21;68.79
64362;BME280;50685;53.346;-6.296;2023-02-14T11:41:54;102289.50;;;14.06;69.21
64362;BME280;50685;53.346;-6.296;2023-02-14T11:44:23;102285.09;;;13.93;70.38
64362;BME280;50685;53.346;-6.296;2023-02-14T11:46:53;102277.97;;;13.93;70.72
64362;BME280;50685;53.346;-6.296;2023-02-14T11:49:23;102268.16;;;13.98;70.48
64362;BME280;50685;53.346;-6.296;2023-02-14T11:51:51;102253.00;;;14.18;70.02
64362;BME280;50685;53.346;-6.296;2023-02-14T11:54:27;102262.78;;;14.19;70.13
64362;BME280;50685;53.346;-6.296;2023-02-14T13:16:56;102130.09;;;15.40;51.53
64362;BME280;50685;53.346;-6.296;2023-02-14T13:22:22;102145.63;;;15.84;50.37
64362;BME280;50685;53.346;-6.296;2023-02-14T13:25:03;102139.91;;;16.12;49.74
64362;BME280;50685;53.346;-6.296;2023-02-14T13:27:33;102119.56;;;16.58;49.22
64362;BME280;50685;53.346;-6.296;2023-02-14T13:30:35;102122.59;;;16.89;47.67
64362;BME280;50685;53.346;-6.296;2023-02-14T13:33:04;102123.91;;;17.16;46.66
64362;BME280;50685;53.346;-6.296;2023-02-14T13:35:30;102126.09;;;17.43;46.65
64362;BME280;50685;53.346;-6.296;2023-02-14T13:37:57;102113.19;;;17.62;46.33
64362;BME280;50685;53.346;-6.296;2023-02-14T13:59:13;102114.94;;;17.63;46.61
64362;BME280;50685;53.346;-6.296;2023-02-14T14:24:20;102121.31;;;16.01;50.33
64362;BME280;50685;53.346;-6.296;2023-02-14T14:26:59;102120.69;;;15.82;50.68
64362;BME280;50685;53.346;-6.296;2023-02-14T14:29:30;102119.78;;;15.83;50.89
64362;BME280;50685;53.346;-6.296;2023-02-14T14:31:55;102110.91;;;15.78;51.29
64362;BME280;50685;53.346;-6.296;2023-02-14T14:34:26;102117.16;;;15.78;51.09
64362;BME280;50685;53.346;-6.296;2023-02-14T14:37:05;102109.19;;;15.73;50.89
64362;BME280;50685;53.346;-6.296;2023-02-14T14:39:31;102093.03;;;15.83;50.83
64362;BME280;50685;53.346;-6.296;2023-02-14T14:42:18;102097.47;;;15.84;50.20
64362;BME280;50685;53.346;-6.296;2023-02-14T14:44:50;102090.31;;;15.86;50.08
64362;BME280;50685;53.346;-6.296;2023-02-14T14:47:47;102088.78;;;15.66;50.38
64362;BME280;50685;53.346;-6.296;2023-02-14T14:50:19;102085.25;;;15.63;50.76
64362;BME280;50685;53.346;-6.296;2023-02-14T14:52:48;102087.09;;;15.57;50.82
64362;BME280;50685;53.346;-6.296;2023-02-14T15:13:12;102091.31;;;14.99;50.85
64362;BME280;50685;53.346;-6.296;2023-02-14T15:15:57;102094.03;;;14.96;51.08
64362;BME280;50685;53.346;-6.296;2023-02-14T15:18:25;102096.78;;;14.90;51.58
64362;BME280;50685;53.346;-6.296;2023-02-14T15:20:54;102094.13;;;14.87;51.86
64362;BME280;50685;53.346;-6.296;2023-02-14T15:23:22;102086.09;;;14.90;52.25
64362;BME280;50685;53.346;-6.296;2023-02-14T15:25:48;102073.59;;;14.93;52.65
64362;BME280;50685;53.346;-6.296;2023-02-14T15:28:28;102097.47;;;15.10;52.47
64362;BME280;50685;53.346;-6.296;2023-02-14T15:30:54;102094.56;;;15.31;51.95
64362;BME280;50685;53.346;-6.296;2023-02-14T15:33:20;102095.84;;;15.70;51.37
64362;BME280;50685;53.346;-6.296;2023-02-14T15:35:46;102090.34;;;15.84;51.16
64362;BME280;50685;53.346;-6.296;2023-02-14T15:38:11;102094.06;;;15.71;51.26
64362;BME280;50685;53.346;-6.296;2023-02-14T15:40:37;102085.00;;;15.81;51.27
64362;BME280;50685;53.346;-6.296;2023-02-14T15:45:42;102070.88;;;16.34;49.74
64362;BME280;50685;53.346;-6.296;2023-02-14T15:48:16;102071.88;;;16.27;49.99
64362;BME280;50685;53.346;-6.296;2023-02-14T15:50:44;102068.72;;;16.01;50.46
64362;BME280;50685;53.346;-6.296;2023-02-14T15:53:28;102070.69;;;15.87;50.88
64362;BME280;50685;53.346;-6.296;2023-02-14T15:56:01;102065.53;;;15.70;51.01
64362;BME280;50685;53.346;-6.296;2023-02-14T15:58:38;102065.41;;;15.81;50.28
64362;BME280;50685;53.346;-6.296;2023-02-14T16:01:05;102058.91;;;16.00;49.77
64362;BME280;50685;53.346;-6.296;2023-02-14T16:03:39;102047.97;;;16.14;49.25
64362;BME280;50685;53.346;-6.296;2023-02-14T16:08:43;102054.34;;;16.07;47.72
64362;BME280;50685;53.346;-6.296;2023-02-14T16:13:45;102061.81;;;15.82;48.22
64362;BME280;50685;53.346;-6.296;2023-02-14T16:16:11;102051.38;;;15.65;48.45
64362;BME280;50685;53.346;-6.296;2023-02-14T16:18:38;102050.63;;;15.52;49.13
64362;BME280;50685;53.346;-6.296;2023-02-14T16:23:43;102050.94;;;15.27;50.43
64362;BME280;50685;53.346;-6.296;2023-02-14T16:26:09;102043.06;;;15.15;51.30
64362;BME280;50685;53.346;-6.296;2023-02-14T16:28:34;102038.81;;;15.00;52.12
64362;BME280;50685;53.346;-6.296;2023-02-14T16:31:04;102041.59;;;14.89;52.58
64362;BME280;50685;53.346;-6.296;2023-02-14T16:33:36;102048.84;;;14.77;53.16
64362;BME280;50685;53.346;-6.296;2023-02-14T16:36:07;102045.38;;;14.63;53.77
64362;BME280;50685;53.346;-6.296;2023-02-14T16:38:40;102054.34;;;14.56;54.04
64362;BME280;50685;53.346;-6.296;2023-02-14T16:41:09;102048.25;;;14.38;54.30
64362;BME280;50685;53.346;-6.296;2023-02-14T16:43:37;102050.16;;;14.24;54.43
64362;BME280;50685;53.346;-6.296;2023-02-14T16:46:02;102035.09;;;14.15;54.51
64362;BME280;50685;53.346;-6.296;2023-02-14T16:48:31;102035.19;;;14.07;54.44
64362;BME280;50685;53.346;-6.296;2023-02-14T16:50:56;102034.34;;;13.94;54.87
64362;BME280;50685;53.346;-6.296;2023-02-14T16:53:25;102032.66;;;13.86;55.19
64362;BME280;50685;53.346;-6.296;2023-02-14T16:55:52;102031.81;;;13.79;55.37
64362;BME280;50685;53.346;-6.296;2023-02-14T17:11:13;102034.72;;;13.22;58.30
64362;BME280;50685;53.346;-6.296;2023-02-14T17:13:42;102037.38;;;13.18;58.32
64362;BME280;50685;53.346;-6.296;2023-02-14T17:16:08;102029.44;;;13.06;58.82
64362;BME280;50685;53.346;-6.296;2023-02-14T17:18:35;102029.47;;;13.03;58.93
64362;BME280;50685;53.346;-6.296;2023-02-14T17:21:01;102028.59;;;12.98;58.82
64362;BME280;50685;53.346;-6.296;2023-02-14T17:23:28;102025.94;;;12.92;58.59
64362;BME280;50685;53.346;-6.296;2023-02-14T17:26:04;102030.38;;;12.86;58.70
64362;BME280;50685;53.346;-6.296;2023-02-14T17:28:30;102034.84;;;12.78;58.93
64362;BME280;50685;53.346;-6.296;2023-02-14T17:30:55;102028.66;;;12.70;58.57
64362;BME280;50685;53.346;-6.296;2023-02-14T17:33:24;102029.53;;;12.64;58.67
64362;BME280;50685;53.346;-6.296;2023-02-14T17:35:56;102027.75;;;12.57;58.91
64362;BME280;50685;53.346;-6.296;2023-02-14T17:38:27;102026.91;;;12.50;58.65
64362;BME280;50685;53.346;-6.296;2023-02-14T17:40:57;102033.09;;;12.51;58.74
64362;BME280;50685;53.346;-6.296;2023-02-14T17:43:23;102033.97;;;12.48;58.49
64362;BME280;50685;53.346;-6.296;2023-02-14T17:45:51;102034.91;;;12.43;58.56
64362;BME280;50685;53.346;-6.296;2023-02-14T17:48:17;102033.13;;;12.40;58.60
64362;BME280;50685;53.346;-6.296;2023-02-14T18:09:39;102043.66;;;11.86;57.66
64362;BME280;50685;53.346;-6.296;2023-02-14T18:14:45;102040.09;;;11.81;57.63
64362;BME280;50685;53.346;-6.296;2023-02-14T18:45:47;102012.56;;;11.38;55.98
64362;BME280;50685;53.346;-6.296;2023-02-14T18:48:12;102024.06;;;11.36;56.06
64362;BME280;50685;53.346;-6.296;2023-02-14T18:50:40;102008.09;;;11.31;55.68
64362;BME280;50685;53.346;-6.296;2023-02-14T18:53:05;102009.88;;;11.31;55.60
64362;BME280;50685;53.346;-6.296;2023-02-14T18:55:31;102000.13;;;11.30;55.33
64362;BME280;50685;53.346;-6.296;2023-02-14T19:05:41;102017.88;;;11.37;54.68
64362;BME280;50685;53.346;-6.296;2023-02-14T19:18:30;102015.19;;;11.34;53.67
64362;BME280;50685;53.346;-6.296;2023-02-14T19:21:06;102012.53;;;11.34;53.84
64362;BME280;50685;53.346;-6.296;2023-02-14T19:23:39;102018.72;;;11.34;53.56
64362;BME280;50685;53.346;-6.296;2023-02-14T19:26:17;102013.41;;;11.31;53.33
64362;BME280;50685;53.346;-6.296;2023-02-14T19:28:46;102017.81;;;11.29;53.36
64362;BME280;50685;53.346;-6.296;2023-02-14T19:31:26;102027.56;;;11.27;53.60
64362;BME280;50685;53.346;-6.296;2023-02-14T19:33:51;102019.56;;;11.25;53.61
64362;BME280;50685;53.346;-6.296;2023-02-14T19:36:18;102026.63;;;11.22;53.90
64362;BME280;50685;53.346;-6.296;2023-02-14T20:09:50;102002.66;;;11.00;51.40
64362;BME280;50685;53.346;-6.296;2023-02-14T20:14:53;101995.56;;;10.99;50.63
64362;BME280;50685;53.346;-6.296;2023-02-14T20:17:26;102001.75;;;11.00;50.17
64362;BME280;50685;53.346;-6.296;2023-02-14T20:19:52;101993.78;;;11.00;49.53
64362;BME280;50685;53.346;-6.296;2023-02-14T20:22:20;101977.84;;;11.00;49.57
64362;BME280;50685;53.346;-6.296;2023-02-14T20:24:47;101992.91;;;11.01;49.47
64362;BME280;50685;53.346;-6.296;2023-02-14T20:27:12;102000.00;;;10.99;49.56
64362;BME280;50685;53.346;-6.296;2023-02-14T20:29:38;101991.13;;;10.95;50.07
64362;BME280;50685;53.346;-6.296;2023-02-14T20:32:07;101999.06;;;10.92;50.35
64362;BME280;50685;53.346;-6.296;2023-02-14T20:34:32;101985.78;;;10.89;50.39
64362;BME280;50685;53.346;-6.296;2023-02-14T20:36:57;101984.84;;;10.84;50.66
64362;BME280;50685;53.346;-6.296;2023-02-14T20:39:33;101992.81;;;10.81;50.83
64362;BME280;50685;53.346;-6.296;2023-02-14T20:42:02;101974.22;;;10.74;51.35
64362;BME280;50685;53.346;-6.296;2023-02-14T20:44:28;101979.47;;;10.71;51.10
64362;BME280;50685;53.346;-6.296;2023-02-14T20:46:54;101963.56;;;10.68;51.27
64362;BME280;50685;53.346;-6.296;2023-02-14T20:49:20;101964.44;;;10.66;51.21
64362;BME280;50685;53.346;-6.296;2023-02-14T20:51:46;101964.44;;;10.66;50.91
64362;BME280;50685;53.346;-6.296;2023-02-14T20:54:26;101970.63;;;10.65;51.01
64362;BME280;50685;53.346;-6.296;2023-02-14T21:04:37;101960.84;;;10.59;50.74
64362;BME280;50685;53.346;-6.296;2023-02-14T21:07:03;101982.06;;;10.59;51.24
64362;BME280;50685;53.346;-6.296;2023-02-14T21:09:33;101966.16;;;10.56;51.37
64362;BME280;50685;53.346;-6.296;2023-02-14T21:11:59;101959.94;;;10.52;51.63
64362;BME280;50685;53.346;-6.296;2023-02-14T21:14:24;101959.03;;;10.50;51.99
64362;BME280;50685;53.346;-6.296;2023-02-14T21:16:50;101956.38;;;10.49;52.14
64362;BME280;50685;53.346;-6.296;2023-02-14T21:19:15;101945.72;;;10.45;52.53
64362;BME280;50685;53.346;-6.296;2023-02-14T21:21:41;101944.81;;;10.42;52.01
64362;BME280;50685;53.346;-6.296;2023-02-14T21:24:09;101936.88;;;10.40;52.44
64362;BME280;50685;53.346;-6.296;2023-02-14T21:26:36;101915.66;;;10.39;51.98
64362;BME280;50685;53.346;-6.296;2023-02-14T21:29:04;101928.91;;;10.39;51.39
64362;BME280;50685;53.346;-6.296;2023-02-14T21:31:39;101919.16;;;10.39;51.72
64362;BME280;50685;53.346;-6.296;2023-02-14T21:34:06;101923.59;;;10.40;51.67
64362;BME280;50685;53.346;-6.296;2023-02-14T21:36:32;101922.72;;;10.40;51.51
64362;BME280;50685;53.346;-6.296;2023-02-14T21:41:36;101905.03;;;10.39;51.25
64362;BME280;50685;53.346;-6.296;2023-02-14T21:44:06;101893.53;;;10.37;51.04
64362;BME280;50685;53.346;-6.296;2023-02-14T21:46:51;101900.59;;;10.36;51.34
64362;BME280;50685;53.346;-6.296;2023-02-14T21:49:18;101904.09;;;10.34;51.49
64362;BME280;50685;53.346;-6.296;2023-02-14T21:52:01;101899.66;;;10.33;50.32
64362;BME280;50685;53.346;-6.296;2023-02-14T21:54:28;101899.66;;;10.34;50.20
64362;BME280;50685;53.346;-6.296;2023-02-14T22:07:15;101902.31;;;10.33;49.09
64362;BME280;50685;53.346;-6.296;2023-02-14T22:09:44;101912.94;;;10.31;48.83
64362;BME280;50685;53.346;-6.296;2023-02-14T22:14:44;101883.72;;;10.28;49.46
64362;BME280;50685;53.346;-6.296;2023-02-14T22:17:14;101879.28;;;10.25;49.70
64362;BME280;50685;53.346;-6.296;2023-02-14T22:19:40;101878.38;;;10.25;49.81
64362;BME280;50685;53.346;-6.296;2023-02-14T22:24:50;101867.78;;;10.22;49.61
64362;BME280;50685;53.346;-6.296;2023-02-14T22:27:18;101862.47;;;10.23;49.16
64362;BME280;50685;53.346;-6.296;2023-02-14T22:29:43;101864.25;;;10.23;49.55
64362;BME280;50685;53.346;-6.296;2023-02-14T22:32:09;101865.13;;;10.23;48.99
64362;BME280;50685;53.346;-6.296;2023-02-14T22:34:34;101859.81;;;10.23;48.65
64362;BME280;50685;53.346;-6.296;2023-02-14T22:37:00;101853.69;;;10.32;47.99
64362;BME280;50685;53.346;-6.296;2023-02-14T22:39:25;101830.72;;;10.36;47.26
64362;BME280;50685;53.346;-6.296;2023-02-14T22:41:51;101839.56;;;10.35;47.28
64362;BME280;50685;53.346;-6.296;2023-02-14T22:44:16;101844.84;;;10.33;46.09
64362;BME280;50685;53.346;-6.296;2023-02-14T22:46:47;101848.38;;;10.32;45.82
64362;BME280;50685;53.346;-6.296;2023-02-14T22:49:13;101837.78;;;10.32;45.80
64362;BME280;50685;53.346;-6.296;2023-02-14T22:51:39;101836.91;;;10.32;45.18
64362;BME280;50685;53.346;-6.296;2023-02-14T22:54:08;101842.19;;;10.32;45.09
64362;BME280;50685;53.346;-6.296;2023-02-14T23:04:22;101824.53;;;10.31;44.64
64362;BME280;50685;53.346;-6.296;2023-02-14T23:06:49;101830.69;;;10.29;44.79
64362;BME280;50685;53.346;-6.296;2023-02-14T23:09:15;101831.59;;;10.32;44.06
64362;BME280;50685;53.346;-6.296;2023-02-14T23:11:41;101823.66;;;10.33;43.88
64362;BME280;50685;53.346;-6.296;2023-02-14T23:14:07;101815.69;;;10.35;43.76
64362;BME280;50685;53.346;-6.296;2023-02-14T23:16:53;101816.59;;;10.35;44.27
64362;BME280;50685;53.346;-6.296;2023-02-14T23:19:38;101820.13;;;10.34;44.63
64362;BME280;50685;53.346;-6.296;2023-02-14T23:22:23;101830.72;;;10.31;44.96
64362;BME280;50685;53.346;-6.296;2023-02-14T23:24:50;101816.56;;;10.32;44.96
64362;BME280;50685;53.346;-6.296;2023-02-14T23:27:18;101821.88;;;10.29;45.37
64362;BME280;50685;53.346;-6.296;2023-02-14T23:29:46;101830.69;;;10.26;45.65
64362;BME280;50685;53.346;-6.296;2023-02-14T23:32:15;101824.50;;;10.24;45.37
64362;BME280;50685;53.346;-6.296;2023-02-14T23:34:42;101815.63;;;10.22;45.86
64362;BME280;50685;53.346;-6.296;2023-02-14T23:37:08;101802.41;;;10.24;45.77
64362;BME280;50685;53.346;-6.296;2023-02-14T23:39:37;101805.94;;;10.26;45.77
64362;BME280;50685;53.346;-6.296;2023-02-14T23:42:03;101796.19;;;10.23;45.95
64362;BME280;50685;53.346;-6.296;2023-02-14T23:44:29;101785.56;;;10.19;46.26
64362;BME280;50685;53.346;-6.296;2023-02-14T23:46:57;101783.78;;;10.16;46.36
64362;BME280;50685;53.346;-6.296;2023-02-14T23:49:30;101773.22;;;10.18;46.76
64362;BME280;50685;53.346;-6.296;2023-02-14T23:51:55;101764.34;;;10.17;46.67
64362;BME280;50685;53.346;-6.296;2023-02-14T23:54:21;101769.66;;;10.17;46.81
64362;BME280;50685;53.346;-6.296;2023-02-14T23:59:21;101750.19;;;10.15;47.24
